sensor_id;sensor_type;location;lat;lon;timestamp;P1;durP1;ratioP1;P2;durP2;ratioP2
20956;SDS011;10637;47.970;7.830;2023-04-29T00:03:33;8.73;;;3.30;;
20956;SDS011;10637;47.970;7.830;2023-04-29T00:08:36;10.37;;;3.47;;
20956;SDS011;10637;47.970;7.830;2023-04-29T00:13:38;8.83;;;3.50;;
20956;SDS011;10637;47.970;7.830;2023-04-29T00:18:41;10.63;;;3.80;;
20956;SDS011;10637;47.970;7.830;2023-04-29T00:23:43;9.30;;;3.43;;
20956;SDS011;10637;47.970;7.830;2023-04-29T00:28:44;8.30;;;3.50;;
20956;SDS011;10637;47.970;7.830;2023-04-29T00:33:46;9.07;;;3.70;;
20956;SDS011;10637;47.970;7.830;2023-04-29T00:38:48;10.03;;;3.60;;
20956;SDS011;10637;47.970;7.830;2023-04-29T00:43:49;16.27;;;4.43;;
20956;SDS011;10637;47.970;7.830;2023-04-29T00:48:52;9.73;;;3.90;;
20956;SDS011;10637;47.970;7.830;2023-04-29T00:53:54;8.70;;;3.63;;
20956;SDS011;10637;47.970;7.830;2023-04-29T00:58:56;11.83;;;3.50;;
20956;SDS011;10637;47.970;7.830;2023-04-29T01:03:58;8.27;;;3.93;;
20956;SDS011;10637;47.970;7.830;2023-04-29T01:09:05;8.40;;;3.97;;
20956;SDS011;10637;47.970;7.830;2023-04-29T01:14:17;10.13;;;3.47;;
20956;SDS011;10637;47.970;7.830;2023-04-29T01:19:24;8.80;;;3.53;;
20956;SDS011;10637;47.970;7.830;2023-04-29T01:24:46;9.33;;;3.33;;
20956;SDS011;10637;47.970;7.830;2023-04-29T01:30:08;7.37;;;3.20;;
20956;SDS011;10637;47.970;7.830;2023-04-29T01:41:09;9.50;;;3.60;;
20956;SDS011;10637;47.970;7.830;2023-04-29T01:46:15;11.13;;;3.63;;
20956;SDS011;10637;47.970;7.830;2023-04-29T01:51:21;10.90;;;3.70;;
20956;SDS011;10637;47.970;7.830;2023-04-29T01:56:22;8.77;;;3.13;;
20956;SDS011;10637;47.970;7.830;2023-04-29T02:01:24;12.43;;;3.30;;
20956;SDS011;10637;47.970;7.830;2023-04-29T02:06:26;8.67;;;3.20;;
20956;SDS011;10637;47.970;7.830;2023-04-29T02:11:28;10.57;;;3.50;;
20956;SDS011;10637;47.970;7.830;2023-04-29T02:16:29;7.47;;;3.00;;
20956;SDS011;10637;47.970;7.830;2023-04-29T02:21:31;13.30;;;3.27;;
20956;SDS011;10637;47.970;7.830;2023-04-29T02:26:35;8.23;;;3.00;;
20956;SDS011;10637;47.970;7.830;2023-04-29T02:31:38;8.23;;;3.40;;
20956;SDS011;10637;47.970;7.830;2023-04-29T02:36:40;8.90;;;2.97;;
20956;SDS011;10637;47.970;7.830;2023-04-29T02:41:41;9.20;;;2.80;;
20956;SDS011;10637;47.970;7.830;2023-04-29T02:46:43;11.23;;;2.97;;
20956;SDS011;10637;47.970;7.830;2023-04-29T02:51:45;8.17;;;3.23;;
20956;SDS011;10637;47.970;7.830;2023-04-29T02:56:49;9.00;;;2.97;;
20956;SDS011;10637;47.970;7.830;2023-04-29T03:01:51;11.87;;;3.60;;
20956;SDS011;10637;47.970;7.830;2023-04-29T03:06:54;9.70;;;3.30;;
20956;SDS011;10637;47.970;7.830;2023-04-29T03:11:59;10.53;;;3.20;;
20956;SDS011;10637;47.970;7.830;2023-04-29T03:17:03;16.00;;;6.57;;
20956;SDS011;10637;47.970;7.830;2023-04-29T03:22:05;10.63;;;3.53;;
20956;SDS011;10637;47.970;7.830;2023-04-29T03:27:08;47.10;;;18.03;;
20956;SDS011;10637;47.970;7.830;2023-04-29T03:32:10;36.07;;;13.50;;
20956;SDS011;10637;47.970;7.830;2023-04-29T03:37:11;34.40;;;14.00;;
20956;SDS011;10637;47.970;7.830;2023-04-29T03:42:13;33.97;;;13.67;;
20956;SDS011;10637;47.970;7.830;2023-04-29T03:47:15;30.50;;;15.00;;
20956;SDS011;10637;47.970;7.830;2023-04-29T03:52:17;17.20;;;8.80;;
20956;SDS011;10637;47.970;7.830;2023-04-29T03:57:18;13.43;;;5.60;;
20956;SDS011;10637;47.970;7.830;2023-04-29T04:02:20;23.43;;;10.20;;
20956;SDS011;10637;47.970;7.830;2023-04-29T04:07:22;10.83;;;4.10;;
20956;SDS011;10637;47.970;7.830;2023-04-29T04:12:24;11.70;;;4.77;;
20956;SDS011;10637;47.970;7.830;2023-04-29T04:17:26;11.33;;;4.30;;
20956;SDS011;10637;47.970;7.830;2023-04-29T04:22:27;34.83;;;17.87;;
20956;SDS011;10637;47.970;7.830;2023-04-29T04:27:29;17.10;;;7.67;;
20956;SDS011;10637;47.970;7.830;2023-04-29T04:32:31;14.33;;;5.77;;
20956;SDS011;10637;47.970;7.830;2023-04-29T04:37:33;15.23;;;5.80;;
20956;SDS011;10637;47.970;7.830;2023-04-29T04:42:34;9.10;;;3.70;;
20956;SDS011;10637;47.970;7.830;2023-04-29T04:47:36;12.53;;;4.07;;
20956;SDS011;10637;47.970;7.830;2023-04-29T04:52:40;10.33;;;3.30;;
20956;SDS011;10637;47.970;7.830;2023-04-29T04:57:42;9.60;;;3.80;;
20956;SDS011;10637;47.970;7.830;2023-04-29T05:02:44;11.30;;;4.37;;
20956;SDS011;10637;47.970;7.830;2023-04-29T05:07:46;10.30;;;3.70;;
20956;SDS011;10637;47.970;7.830;2023-04-29T05:12:48;13.90;;;3.90;;
20956;SDS011;10637;47.970;7.830;2023-04-29T05:17:50;12.37;;;3.93;;
20956;SDS011;10637;47.970;7.830;2023-04-29T05:22:51;13.27;;;3.97;;
20956;SDS011;10637;47.970;7.830;2023-04-29T05:27:53;9.80;;;3.70;;
20956;SDS011;10637;47.970;7.830;2023-04-29T05:32:55;10.43;;;3.90;;
20956;SDS011;10637;47.970;7.830;2023-04-29T05:37:57;9.17;;;4.00;;
20956;SDS011;10637;47.970;7.830;2023-04-29T05:42:58;10.27;;;3.60;;
20956;SDS011;10637;47.970;7.830;2023-04-29T05:48:00;8.40;;;4.33;;
20956;SDS011;10637;47.970;7.830;2023-04-29T05:53:02;11.70;;;5.20;;
20956;SDS011;10637;47.970;7.830;2023-04-29T05:58:04;11.53;;;5.07;;
20956;SDS011;10637;47.970;7.830;2023-04-29T06:03:06;12.67;;;4.90;;
20956;SDS011;10637;47.970;7.830;2023-04-29T06:08:08;8.83;;;4.40;;
20956;SDS011;10637;47.970;7.830;2023-04-29T06:13:11;10.87;;;4.73;;
20956;SDS011;10637;47.970;7.830;2023-04-29T06:18:12;10.70;;;3.93;;
20956;SDS011;10637;47.970;7.830;2023-04-29T06:23:14;13.07;;;4.60;;
20956;SDS011;10637;47.970;7.830;2023-04-29T06:28:16;8.60;;;3.90;;
20956;SDS011;10637;47.970;7.830;2023-04-29T06:33:18;7.70;;;3.40;;
20956;SDS011;10637;47.970;7.830;2023-04-29T06:38:19;9.27;;;3.60;;
20956;SDS011;10637;47.970;7.830;2023-04-29T06:43:21;8.83;;;3.50;;
20956;SDS011;10637;47.970;7.830;2023-04-29T06:48:23;7.83;;;3.30;;
20956;SDS011;10637;47.970;7.830;2023-04-29T06:53:25;7.57;;;3.03;;
20956;SDS011;10637;47.970;7.830;2023-04-29T06:58:27;8.40;;;2.90;;
20956;SDS011;10637;47.970;7.830;2023-04-29T07:03:29;12.13;;;3.33;;
20956;SDS011;10637;47.970;7.830;2023-04-29T07:08:31;8.00;;;2.77;;
20956;SDS011;10637;47.970;7.830;2023-04-29T07:13:33;7.97;;;3.17;;
20956;SDS011;10637;47.970;7.830;2023-04-29T07:18:35;7.77;;;2.60;;
20956;SDS011;10637;47.970;7.830;2023-04-29T07:23:37;7.43;;;2.70;;
20956;SDS011;10637;47.970;7.830;2023-04-29T07:28:38;8.57;;;2.70;;
20956;SDS011;10637;47.970;7.830;2023-04-29T07:33:40;10.23;;;2.90;;
20956;SDS011;10637;47.970;7.830;2023-04-29T07:38:42;8.70;;;2.90;;
20956;SDS011;10637;47.970;7.830;2023-04-29T07:43:44;6.97;;;2.80;;
20956;SDS011;10637;47.970;7.830;2023-04-29T07:48:46;7.33;;;2.73;;
20956;SDS011;10637;47.970;7.830;2023-04-29T07:53:48;9.37;;;2.73;;
20956;SDS011;10637;47.970;7.830;2023-04-29T07:58:49;7.77;;;2.47;;
20956;SDS011;10637;47.970;7.830;2023-04-29T08:03:51;8.80;;;2.60;;
20956;SDS011;10637;47.970;7.830;2023-04-29T08:08:53;7.20;;;2.60;;
20956;SDS011;10637;47.970;7.830;2023-04-29T08:13:56;8.53;;;2.60;;
20956;SDS011;10637;47.970;7.830;2023-04-29T08:19:00;6.87;;;2.40;;
20956;SDS011;10637;47.970;7.830;2023-04-29T08:24:01;7.00;;;2.57;;
20956;SDS011;10637;47.970;7.830;2023-04-29T08:29:03;9.07;;;2.70;;
20956;SDS011;10637;47.970;7.830;2023-04-29T08:34:05;8.43;;;2.83;;
20956;SDS011;10637;47.970;7.830;2023-04-29T08:39:07;8.77;;;2.87;;
20956;SDS011;10637;47.970;7.830;2023-04-29T08:44:10;7.90;;;2.90;;
20956;SDS011;10637;47.970;7.830;2023-04-29T08:49:12;10.03;;;3.17;;
20956;SDS011;10637;47.970;7.830;2023-04-29T08:54:14;8.50;;;3.00;;
20956;SDS011;10637;47.970;7.830;2023-04-29T08:59:16;6.43;;;2.60;;
20956;SDS011;10637;47.970;7.830;2023-04-29T09:09:24;8.60;;;3.47;;
20956;SDS011;10637;47.970;7.830;2023-04-29T09:14:26;8.13;;;3.07;;
20956;SDS011;10637;47.970;7.830;2023-04-29T09:19:34;7.37;;;3.13;;
20956;SDS011;10637;47.970;7.830;2023-04-29T09:24:37;8.57;;;3.13;;
20956;SDS011;10637;47.970;7.830;2023-04-29T09:29:42;7.50;;;3.20;;
20956;SDS011;10637;47.970;7.830;2023-04-29T09:40:30;7.47;;;2.53;;
20956;SDS011;10637;47.970;7.830;2023-04-29T09:45:47;7.80;;;3.20;;
20956;SDS011;10637;47.970;7.830;2023-04-29T09:50:59;10.03;;;3.03;;
20956;SDS011;10637;47.970;7.830;2023-04-29T09:56:03;7.13;;;2.73;;
20956;SDS011;10637;47.970;7.830;2023-04-29T10:01:05;8.40;;;3.00;;
20956;SDS011;10637;47.970;7.830;2023-04-29T10:06:08;7.80;;;2.93;;
20956;SDS011;10637;47.970;7.830;2023-04-29T10:11:10;6.57;;;2.57;;
20956;SDS011;10637;47.970;7.830;2023-04-29T10:21:35;7.10;;;2.60;;
20956;SDS011;10637;47.970;7.830;2023-04-29T10:26:38;10.67;;;3.20;;
20956;SDS011;10637;47.970;7.830;2023-04-29T10:31:42;6.83;;;2.33;;
20956;SDS011;10637;47.970;7.830;2023-04-29T10:36:44;7.97;;;2.90;;
20956;SDS011;10637;47.970;7.830;2023-04-29T10:41:47;7.37;;;2.40;;
20956;SDS011;10637;47.970;7.830;2023-04-29T10:47:11;9.47;;;2.80;;
20956;SDS011;10637;47.970;7.830;2023-04-29T10:52:19;8.77;;;2.37;;
20956;SDS011;10637;47.970;7.830;2023-04-29T10:57:21;6.80;;;2.50;;
20956;SDS011;10637;47.970;7.830;2023-04-29T11:02:23;8.33;;;2.60;;
20956;SDS011;10637;47.970;7.830;2023-04-29T11:07:27;8.37;;;2.93;;
20956;SDS011;10637;47.970;7.830;2023-04-29T11:12:29;7.30;;;2.60;;
20956;SDS011;10637;47.970;7.830;2023-04-29T11:17:34;8.47;;;2.40;;
20956;SDS011;10637;47.970;7.830;2023-04-29T11:22:38;7.57;;;2.70;;
20956;SDS011;10637;47.970;7.830;2023-04-29T11:27:40;7.97;;;2.53;;
20956;SDS011;10637;47.970;7.830;2023-04-29T11:32:43;7.20;;;2.30;;
20956;SDS011;10637;47.970;7.830;2023-04-29T11:37:45;8.70;;;2.70;;
20956;SDS011;10637;47.970;7.830;2023-04-29T11:42:48;7.40;;;2.57;;
20956;SDS011;10637;47.970;7.830;2023-04-29T11:47:50;10.17;;;2.40;;
20956;SDS011;10637;47.970;7.830;2023-04-29T11:52:55;7.80;;;2.70;;
20956;SDS011;10637;47.970;7.830;2023-04-29T11:57:58;10.57;;;2.90;;
20956;SDS011;10637;47.970;7.830;2023-04-29T12:03:00;7.57;;;2.73;;
20956;SDS011;10637;47.970;7.830;2023-04-29T12:08:02;7.20;;;2.50;;
20956;SDS011;10637;47.970;7.830;2023-04-29T12:13:04;8.47;;;2.60;;
20956;SDS011;10637;47.970;7.830;2023-04-29T12:18:06;8.00;;;2.40;;
20956;SDS011;10637;47.970;7.830;2023-04-29T12:23:15;7.50;;;2.90;;
20956;SDS011;10637;47.970;7.830;2023-04-29T12:28:25;8.27;;;2.73;;
20956;SDS011;10637;47.970;7.830;2023-04-29T12:33:27;6.73;;;2.30;;
20956;SDS011;10637;47.970;7.830;2023-04-29T12:38:30;7.93;;;2.83;;
20956;SDS011;10637;47.970;7.830;2023-04-29T12:43:32;7.80;;;2.60;;
20956;SDS011;10637;47.970;7.830;2023-04-29T12:48:34;9.63;;;2.70;;
20956;SDS011;10637;47.970;7.830;2023-04-29T12:53:44;6.80;;;2.10;;
20956;SDS011;10637;47.970;7.830;2023-04-29T12:58:47;6.53;;;2.33;;
20956;SDS011;10637;47.970;7.830;2023-04-29T13:03:48;9.17;;;2.70;;
20956;SDS011;10637;47.970;7.830;2023-04-29T13:08:51;7.53;;;2.47;;
20956;SDS011;10637;47.970;7.830;2023-04-29T13:13:53;7.80;;;2.60;;
20956;SDS011;10637;47.970;7.830;2023-04-29T13:18:56;8.43;;;3.20;;
20956;SDS011;10637;47.970;7.830;2023-04-29T13:24:12;7.20;;;2.80;;
20956;SDS011;10637;47.970;7.830;2023-04-29T13:29:14;9.50;;;2.90;;
20956;SDS011;10637;47.970;7.830;2023-04-29T13:34:16;7.17;;;2.90;;
20956;SDS011;10637;47.970;7.830;2023-04-29T13:39:18;11.33;;;3.17;;
20956;SDS011;10637;47.970;7.830;2023-04-29T13:44:23;8.17;;;3.10;;
20956;SDS011;10637;47.970;7.830;2023-04-29T13:49:39;7.57;;;3.13;;
20956;SDS011;10637;47.970;7.830;2023-04-29T13:55:01;8.77;;;3.23;;
20956;SDS011;10637;47.970;7.830;2023-04-29T14:00:06;8.53;;;3.30;;
20956;SDS011;10637;47.970;7.830;2023-04-29T14:05:29;9.40;;;2.83;;
20956;SDS011;10637;47.970;7.830;2023-04-29T14:10:31;8.63;;;2.90;;
20956;SDS011;10637;47.970;7.830;2023-04-29T14:15:33;7.80;;;3.00;;
20956;SDS011;10637;47.970;7.830;2023-04-29T14:20:35;7.50;;;2.93;;
20956;SDS011;10637;47.970;7.830;2023-04-29T14:25:36;8.70;;;3.30;;
20956;SDS011;10637;47.970;7.830;2023-04-29T14:30:39;7.70;;;3.30;;
20956;SDS011;10637;47.970;7.830;2023-04-29T14:35:41;9.53;;;4.07;;
20956;SDS011;10637;47.970;7.830;2023-04-29T14:40:43;8.20;;;3.10;;
20956;SDS011;10637;47.970;7.830;2023-04-29T14:45:45;8.10;;;3.20;;
20956;SDS011;10637;47.970;7.830;2023-04-29T14:50:47;8.40;;;3.63;;
20956;SDS011;10637;47.970;7.830;2023-04-29T14:55:49;11.33;;;3.90;;
20956;SDS011;10637;47.970;7.830;2023-04-29T15:00:51;7.90;;;3.37;;
20956;SDS011;10637;47.970;7.830;2023-04-29T15:05:53;9.90;;;3.90;;
20956;SDS011;10637;47.970;7.830;2023-04-29T15:10:55;8.40;;;3.53;;
20956;SDS011;10637;47.970;7.830;2023-04-29T15:15:57;8.27;;;3.33;;
20956;SDS011;10637;47.970;7.830;2023-04-29T15:20:58;8.37;;;3.57;;
20956;SDS011;10637;47.970;7.830;2023-04-29T15:26:00;10.10;;;4.00;;
20956;SDS011;10637;47.970;7.830;2023-04-29T15:31:02;11.90;;;4.33;;
20956;SDS011;10637;47.970;7.830;2023-04-29T15:36:05;10.00;;;4.50;;
20956;SDS011;10637;47.970;7.830;2023-04-29T15:41:07;8.77;;;4.00;;
20956;SDS011;10637;47.970;7.830;2023-04-29T15:46:09;9.10;;;4.27;;
20956;SDS011;10637;47.970;7.830;2023-04-29T15:51:11;9.30;;;4.57;;
20956;SDS011;10637;47.970;7.830;2023-04-29T15:56:16;10.60;;;4.77;;
20956;SDS011;10637;47.970;7.830;2023-04-29T16:01:18;10.00;;;4.43;;
20956;SDS011;10637;47.970;7.830;2023-04-29T16:06:19;9.63;;;4.90;;
20956;SDS011;10637;47.970;7.830;2023-04-29T16:11:21;12.37;;;6.57;;
20956;SDS011;10637;47.970;7.830;2023-04-29T16:16:23;21.63;;;15.17;;
20956;SDS011;10637;47.970;7.830;2023-04-29T16:21:25;10.03;;;5.17;;
20956;SDS011;10637;47.970;7.830;2023-04-29T16:26:27;10.53;;;5.00;;
20956;SDS011;10637;47.970;7.830;2023-04-29T16:31:29;9.80;;;5.03;;
20956;SDS011;10637;47.970;7.830;2023-04-29T16:36:31;11.87;;;5.57;;
20956;SDS011;10637;47.970;7.830;2023-04-29T16:41:33;10.90;;;5.40;;
20956;SDS011;10637;47.970;7.830;2023-04-29T16:46:35;10.83;;;5.80;;
20956;SDS011;10637;47.970;7.830;2023-04-29T16:51:37;11.77;;;5.30;;
20956;SDS011;10637;47.970;7.830;2023-04-29T16:56:39;11.70;;;6.40;;
20956;SDS011;10637;47.970;7.830;2023-04-29T17:01:40;13.23;;;6.63;;
20956;SDS011;10637;47.970;7.830;2023-04-29T17:06:42;10.87;;;5.80;;
20956;SDS011;10637;47.970;7.830;2023-04-29T17:11:44;11.50;;;5.63;;
20956;SDS011;10637;47.970;7.830;2023-04-29T17:16:46;11.77;;;6.10;;
20956;SDS011;10637;47.970;7.830;2023-04-29T17:21:48;12.00;;;6.63;;
20956;SDS011;10637;47.970;7.830;2023-04-29T17:26:50;12.33;;;6.43;;
20956;SDS011;10637;47.970;7.830;2023-04-29T17:31:52;13.10;;;7.17;;
20956;SDS011;10637;47.970;7.830;2023-04-29T17:37:00;13.97;;;7.17;;
20956;SDS011;10637;47.970;7.830;2023-04-29T17:42:02;14.53;;;8.53;;
20956;SDS011;10637;47.970;7.830;2023-04-29T17:47:03;14.73;;;8.50;;
20956;SDS011;10637;47.970;7.830;2023-04-29T17:52:06;15.90;;;8.57;;
20956;SDS011;10637;47.970;7.830;2023-04-29T17:57:08;22.37;;;12.57;;
20956;SDS011;10637;47.970;7.830;2023-04-29T18:02:09;29.43;;;16.97;;
20956;SDS011;10637;47.970;7.830;2023-04-29T18:07:11;19.93;;;12.40;;
20956;SDS011;10637;47.970;7.830;2023-04-29T18:12:13;22.17;;;13.97;;
20956;SDS011;10637;47.970;7.830;2023-04-29T18:17:15;22.37;;;13.33;;
20956;SDS011;10637;47.970;7.830;2023-04-29T18:22:17;14.70;;;8.67;;
20956;SDS011;10637;47.970;7.830;2023-04-29T18:27:18;14.57;;;8.40;;
20956;SDS011;10637;47.970;7.830;2023-04-29T18:32:21;17.80;;;8.20;;
20956;SDS011;10637;47.970;7.830;2023-04-29T18:37:22;14.57;;;8.17;;
20956;SDS011;10637;47.970;7.830;2023-04-29T18:42:24;15.17;;;8.60;;
20956;SDS011;10637;47.970;7.830;2023-04-29T18:47:26;13.43;;;8.03;;
20956;SDS011;10637;47.970;7.830;2023-04-29T18:52:28;17.50;;;9.70;;
20956;SDS011;10637;47.970;7.830;2023-04-29T18:57:30;17.33;;;9.37;;
20956;SDS011;10637;47.970;7.830;2023-04-29T19:02:32;17.60;;;9.67;;
20956;SDS011;10637;47.970;7.830;2023-04-29T19:07:34;17.97;;;9.17;;
20956;SDS011;10637;47.970;7.830;2023-04-29T19:12:36;25.97;;;15.40;;
20956;SDS011;10637;47.970;7.830;2023-04-29T19:17:38;23.83;;;14.57;;
20956;SDS011;10637;47.970;7.830;2023-04-29T19:22:40;21.03;;;10.90;;
20956;SDS011;10637;47.970;7.830;2023-04-29T19:27:41;23.57;;;13.70;;
20956;SDS011;10637;47.970;7.830;2023-04-29T19:32:49;17.57;;;10.57;;
20956;SDS011;10637;47.970;7.830;2023-04-29T19:37:51;21.10;;;14.20;;
20956;SDS011;10637;47.970;7.830;2023-04-29T19:42:54;19.60;;;11.87;;
20956;SDS011;10637;47.970;7.830;2023-04-29T19:47:56;19.97;;;10.17;;
20956;SDS011;10637;47.970;7.830;2023-04-29T19:53:02;17.70;;;9.97;;
20956;SDS011;10637;47.970;7.830;2023-04-29T19:58:04;18.37;;;10.63;;
20956;SDS011;10637;47.970;7.830;2023-04-29T20:03:06;16.03;;;9.37;;
20956;SDS011;10637;47.970;7.830;2023-04-29T20:08:08;16.70;;;10.30;;
20956;SDS011;10637;47.970;7.830;2023-04-29T20:13:10;15.47;;;9.23;;
20956;SDS011;10637;47.970;7.830;2023-04-29T20:18:11;16.10;;;9.30;;
20956;SDS011;10637;47.970;7.830;2023-04-29T20:23:14;17.73;;;9.97;;
20956;SDS011;10637;47.970;7.830;2023-04-29T20:28:16;19.17;;;9.37;;
20956;SDS011;10637;47.970;7.830;2023-04-29T20:33:17;18.27;;;10.50;;
20956;SDS011;10637;47.970;7.830;2023-04-29T20:38:19;17.80;;;10.37;;
20956;SDS011;10637;47.970;7.830;2023-04-29T20:43:24;19.53;;;11.03;;
20956;SDS011;10637;47.970;7.830;2023-04-29T20:48:26;19.00;;;10.93;;
20956;SDS011;10637;47.970;7.830;2023-04-29T20:53:28;19.00;;;10.97;;
20956;SDS011;10637;47.970;7.830;2023-04-29T20:58:31;21.60;;;11.47;;
20956;SDS011;10637;47.970;7.830;2023-04-29T21:03:33;18.00;;;11.10;;
20956;SDS011;10637;47.970;7.830;2023-04-29T21:08:35;19.07;;;11.00;;
20956;SDS011;10637;47.970;7.830;2023-04-29T21:13:37;17.30;;;9.80;;
20956;SDS011;10637;47.970;7.830;2023-04-29T21:18:38;20.17;;;10.60;;
20956;SDS011;10637;47.970;7.830;2023-04-29T21:23:40;19.17;;;10.67;;
20956;SDS011;10637;47.970;7.830;2023-04-29T21:28:42;17.87;;;10.90;;
20956;SDS011;10637;47.970;7.830;2023-04-29T21:33:44;20.00;;;10.50;;
20956;SDS011;10637;47.970;7.830;2023-04-29T21:38:46;17.73;;;10.87;;
20956;SDS011;10637;47.970;7.830;2023-04-29T21:43:49;18.63;;;10.67;;
20956;SDS011;10637;47.970;7.830;2023-04-29T21:48:51;17.37;;;10.40;;
20956;SDS011;10637;47.970;7.830;2023-04-29T21:53:53;15.37;;;9.57;;
20956;SDS011;10637;47.970;7.830;2023-04-29T21:58:54;15.43;;;9.53;;
20956;SDS011;10637;47.970;7.830;2023-04-29T22:03:56;18.13;;;9.90;;
20956;SDS011;10637;47.970;7.830;2023-04-29T22:08:58;17.43;;;10.17;;
20956;SDS011;10637;47.970;7.830;2023-04-29T22:14:00;20.20;;;11.03;;
20956;SDS011;10637;47.970;7.830;2023-04-29T22:19:02;18.37;;;10.10;;
20956;SDS011;10637;47.970;7.830;2023-04-29T22:24:04;18.57;;;9.87;;
20956;SDS011;10637;47.970;7.830;2023-04-29T22:29:06;16.33;;;9.80;;
20956;SDS011;10637;47.970;7.830;2023-04-29T22:34:07;17.23;;;9.80;;
20956;SDS011;10637;47.970;7.830;2023-04-29T22:39:09;16.60;;;9.77;;
20956;SDS011;10637;47.970;7.830;2023-04-29T22:44:11;17.80;;;9.43;;
20956;SDS011;10637;47.970;7.830;2023-04-29T22:49:13;18.50;;;9.97;;
20956;SDS011;10637;47.970;7.830;2023-04-29T22:54:14;15.53;;;8.93;;
20956;SDS011;10637;47.970;7.830;2023-04-29T22:59:16;22.73;;;10.13;;
20956;SDS011;10637;47.970;7.830;2023-04-29T23:04:18;18.50;;;9.53;;
20956;SDS011;10637;47.970;7.830;2023-04-29T23:09:20;17.53;;;10.43;;
20956;SDS011;10637;47.970;7.830;2023-04-29T23:14:22;16.27;;;9.13;;
20956;SDS011;10637;47.970;7.830;2023-04-29T23:19:24;15.20;;;9.07;;
20956;SDS011;10637;47.970;7.830;2023-04-29T23:24:26;16.93;;;9.97;;
20956;SDS011;10637;47.970;7.830;2023-04-29T23:29:31;15.60;;;9.73;;
20956;SDS011;10637;47.970;7.830;2023-04-29T23:34:34;18.67;;;10.10;;
20956;SDS011;10637;47.970;7.830;2023-04-29T23:39:36;18.07;;;9.87;;
20956;SDS011;10637;47.970;7.830;2023-04-29T23:44:37;18.30;;;11.00;;
20956;SDS011;10637;47.970;7.830;2023-04-29T23:49:40;17.43;;;10.00;;
20956;SDS011;10637;47.970;7.830;2023-04-29T23:54:41;20.23;;;10.73;;
20956;SDS011;10637;47.970;7.830;2023-04-29T23:59:43;16.53;;;10.90;;
